Time;durP1;ratioP1;P1;durP2;ratioP2;P2;SDS_P1;SDS_P2;PMS_P1;PMS_P2;Temp;Humidity;BMP_temperature;BMP_pressure;BME280_temperature;BME280_humidity;BME280_pressure;Samples;Min_cycle;Max_cycle;Signal;HPM_P1;HPM_P2
2023/03/14 00:01:29;;;;;;;2.55;1.33;;;;;10.60;94695.00;;;;8431831;28;20211;-70
2023/03/14 00:05:34;;;;;;;2.33;1.48;;;;;10.60;94674.00;;;;8430130;28;20252;-70
2023/03/14 00:09:39;;;;;;;1.60;1.50;;;;;10.70;94641.00;;;;8431436;28;20243;-71
2023/03/14 00:13:50;;;;;;;2.60;1.40;;;;;10.70;94596.00;;;;8397407;28;20189;-70
2023/03/14 00:17:54;;;;;;;1.13;1.13;;;;;10.70;94595.00;;;;8431183;28;20225;-71
2023/03/14 00:21:57;;;;;;;3.83;1.80;;;;;10.70;94601.00;;;;8430516;28;20195;-70
2023/03/14 00:26:05;;;;;;;1.10;1.10;;;;;10.60;94658.00;;;;8431293;28;20578;-70
2023/03/14 00:30:11;;;;;;;2.47;1.10;;;;;10.50;94658.00;;;;8431692;28;20191;-71
2023/03/14 00:34:19;;;;;;;1.20;1.20;;;;;10.40;94669.00;;;;8430926;28;20193;-70
2023/03/14 00:38:24;;;;;;;3.55;1.90;;;;;10.30;94709.00;;;;8430448;28;20544;-71
2023/03/14 00:42:34;;;;;;;3.58;1.83;;;;;10.30;94738.00;;;;8432289;28;20240;-70
2023/03/14 00:46:37;;;;;;;1.48;1.38;;;;;10.30;94748.00;;;;8431291;28;20248;-71
2023/03/14 00:50:42;;;;;;;1.38;1.27;;;;;10.30;94745.00;;;;8430736;28;20282;-69
2023/03/14 00:54:45;;;;;;;2.80;1.20;;;;;10.30;94762.00;;;;8429967;28;20222;-70
2023/03/14 00:58:50;;;;;;;1.85;1.00;;;;;10.30;94744.00;;;;8430239;28;20243;-71
2023/03/14 01:02:53;;;;;;;2.72;1.08;;;;;10.40;94722.00;;;;8431048;28;20236;-71
2023/03/14 01:06:56;;;;;;;0.95;0.95;;;;;10.40;94703.00;;;;8430932;28;20249;-71
2023/03/14 01:11:05;;;;;;;0.85;0.82;;;;;10.50;94693.00;;;;8430545;28;20206;-70
2023/03/14 01:15:11;;;;;;;0.82;0.80;;;;;10.50;94702.00;;;;8430042;28;20258;-71
2023/03/14 01:19:14;;;;;;;0.88;0.85;;;;;10.50;94696.00;;;;8431822;28;20190;-71
2023/03/14 01:23:19;;;;;;;0.70;0.70;;;;;10.50;94698.00;;;;8429320;28;20254;-70
2023/03/14 01:27:25;;;;;;;0.65;0.65;;;;;10.50;94677.00;;;;8436198;28;20200;-70
2023/03/14 01:31:31;;;;;;;0.70;0.70;;;;;10.50;94672.00;;;;8436779;28;20195;-70
2023/03/14 01:35:37;;;;;;;0.70;0.70;;;;;10.40;94675.00;;;;8435543;28;20211;-71
2023/03/14 01:39:42;;;;;;;0.68;0.68;;;;;10.40;94674.00;;;;8417914;28;20191;-71
2023/03/14 01:43:46;;;;;;;0.60;0.60;;;;;10.40;94673.00;;;;8435823;28;20190;-71
2023/03/14 01:47:53;;;;;;;0.70;0.70;;;;;10.30;94689.00;;;;8435876;28;20196;-71
2023/03/14 01:51:59;;;;;;;0.75;0.75;;;;;10.30;94671.00;;;;8436020;28;20196;-71
2023/03/14 01:56:06;;;;;;;0.60;0.60;;;;;10.30;94648.00;;;;8435141;28;20264;-72
2023/03/14 02:00:14;;;;;;;0.73;0.73;;;;;10.30;94625.00;;;;8436228;28;20245;-71
2023/03/14 02:04:25;;;;;;;0.70;0.70;;;;;10.30;94620.00;;;;8435840;28;20226;-70
2023/03/14 02:08:28;;;;;;;0.70;0.70;;;;;10.30;94597.00;;;;8436235;28;20536;-70
2023/03/14 02:12:36;;;;;;;0.68;0.68;;;;;10.30;94584.00;;;;8434515;28;20195;-71
2023/03/14 02:16:39;;;;;;;0.70;0.70;;;;;10.20;94563.00;;;;8435124;28;20271;-70
2023/03/14 02:20:53;;;;;;;1.08;0.80;;;;;10.20;94568.00;;;;8435215;28;20669;-70
2023/03/14 02:25:08;;;;;;;0.80;0.80;;;;;10.20;94537.00;;;;8435644;28;20698;-70
2023/03/14 02:29:14;;;;;;;0.70;0.70;;;;;10.10;94505.00;;;;8433424;28;20199;-70
2023/03/14 02:33:21;;;;;;;0.65;0.65;;;;;10.10;94522.00;;;;8434793;28;20630;-70
2023/03/14 02:37:32;;;;;;;0.60;0.60;;;;;10.10;94566.00;;;;8434016;28;20223;-71
2023/03/14 02:41:35;;;;;;;0.70;0.70;;;;;10.10;94547.00;;;;8435569;28;20193;-70
2023/03/14 02:45:44;;;;;;;0.60;0.60;;;;;10.10;94586.00;;;;8432660;28;20540;-71
2023/03/14 02:49:48;;;;;;;0.60;0.60;;;;;10.10;94581.00;;;;8432781;28;20645;-71
2023/03/14 02:53:51;;;;;;;0.57;0.57;;;;;10.00;94582.00;;;;8433160;28;20196;-70
2023/03/14 02:57:54;;;;;;;0.60;0.60;;;;;10.00;94584.00;;;;8434990;28;20249;-71
2023/03/14 03:02:00;;;;;;;0.60;0.60;;;;;10.00;94599.00;;;;8452348;22;20325;-72
2023/03/14 03:06:04;;;;;;;0.63;0.63;;;;;10.00;94607.00;;;;8401724;28;20192;-71
2023/03/14 03:10:08;;;;;;;0.70;0.70;;;;;10.00;94608.00;;;;8417747;28;20207;-72
2023/03/14 03:14:15;;;;;;;0.55;0.55;;;;;10.00;94615.00;;;;8418644;28;20558;-71
2023/03/14 03:18:32;;;;;;;0.63;0.63;;;;;9.90;94603.00;;;;8416031;28;20229;-72
2023/03/14 03:22:35;;;;;;;0.70;0.70;;;;;9.90;94612.00;;;;8417792;28;20195;-71
2023/03/14 03:26:38;;;;;;;0.70;0.70;;;;;9.90;94606.00;;;;8405500;28;20203;-72
2023/03/14 03:30:42;;;;;;;0.73;0.73;;;;;9.90;94612.00;;;;8407163;28;20199;-72
2023/03/14 03:34:47;;;;;;;0.98;0.98;;;;;9.90;94602.00;;;;8412370;28;20203;-72
2023/03/14 03:38:53;;;;;;;1.00;0.88;;;;;9.90;94604.00;;;;8413545;28;20251;-72
2023/03/14 03:42:59;;;;;;;0.90;0.90;;;;;9.90;94600.00;;;;8415107;28;20204;-72
2023/03/14 03:47:07;;;;;;;1.02;0.98;;;;;9.90;94585.00;;;;8412830;28;20541;-73
2023/03/14 03:51:14;;;;;;;0.90;0.90;;;;;9.90;94570.00;;;;8414668;28;20247;-73
2023/03/14 03:55:17;;;;;;;3.33;0.97;;;;;9.90;94570.00;;;;8412599;28;20233;-73
2023/03/14 03:59:24;;;;;;;1.10;1.10;;;;;9.90;94573.00;;;;8413275;28;20205;-73
2023/03/14 04:03:31;;;;;;;0.90;0.90;;;;;9.80;94570.00;;;;8382186;28;20692;-74
2023/03/14 04:07:39;;;;;;;1.10;1.00;;;;;9.80;94569.00;;;;8382713;28;20196;-74
2023/03/14 04:11:43;;;;;;;0.90;0.90;;;;;9.80;94570.00;;;;8371186;28;20289;-73
2023/03/14 04:15:46;;;;;;;0.80;0.80;;;;;9.80;94563.00;;;;8359676;28;20692;-73
2023/03/14 04:19:53;;;;;;;0.80;0.80;;;;;9.80;94561.00;;;;8369329;28;20518;-74
2023/03/14 04:23:58;;;;;;;1.00;0.82;;;;;9.70;94545.00;;;;8380967;28;20211;-71
2023/03/14 04:28:07;;;;;;;1.02;1.02;;;;;9.70;94531.00;;;;8376761;28;20865;-73
2023/03/14 04:32:10;;;;;;;0.90;0.90;;;;;9.70;94528.00;;;;8374816;28;20260;-73
2023/03/14 04:36:16;;;;;;;1.13;1.13;;;;;9.70;94524.00;;;;8350642;28;20223;-74
2023/03/14 04:40:28;;;;;;;1.60;1.17;;;;;9.70;94532.00;;;;8367691;28;20198;-73
2023/03/14 04:44:31;;;;;;;1.95;1.20;;;;;9.70;94527.00;;;;8371678;28;20651;-73
2023/03/14 04:48:34;;;;;;;1.30;1.20;;;;;9.70;94517.00;;;;8379677;28;20203;-72
2023/03/14 04:52:39;;;;;;;3.15;1.15;;;;;9.70;94517.00;;;;8380740;28;20196;-76
2023/03/14 04:56:43;;;;;;;2.33;1.30;;;;;9.70;94528.00;;;;8386527;28;20285;-74
2023/03/14 05:00:50;;;;;;;1.88;0.98;;;;;9.70;94529.00;;;;8383843;28;20207;-74
2023/03/14 05:04:55;;;;;;;1.00;1.00;;;;;9.80;94541.00;;;;8381125;28;20236;-75
2023/03/14 05:08:59;;;;;;;2.33;1.05;;;;;9.70;94536.00;;;;8381871;28;20711;-75
2023/03/14 05:13:06;;;;;;;3.20;1.00;;;;;9.70;94533.00;;;;8379900;28;20204;-77
2023/03/14 05:17:10;;;;;;;1.10;1.10;;;;;9.80;94517.00;;;;8380699;28;20228;-78
2023/03/14 05:21:13;;;;;;;1.30;1.20;;;;;9.70;94516.00;;;;8375884;28;20213;-78
2023/03/14 05:25:17;;;;;;;2.63;1.00;;;;;9.70;94514.00;;;;8379894;28;20227;-75
2023/03/14 05:29:25;;;;;;;0.90;0.90;;;;;9.70;94502.00;;;;8380147;28;20193;-75
2023/03/14 05:33:31;;;;;;;1.83;1.40;;;;;9.70;94494.00;;;;8377751;28;20196;-75
2023/03/14 05:37:38;;;;;;;2.35;1.70;;;;;9.70;94485.00;;;;8373351;28;20320;-77
2023/03/14 05:41:42;;;;;;;1.52;1.42;;;;;9.70;94492.00;;;;8361053;28;20227;-77
2023/03/14 05:45:47;;;;;;;1.85;1.50;;;;;9.70;94495.00;;;;8367404;28;20288;-78
2023/03/14 05:49:53;;;;;;;3.73;2.40;;;;;9.70;94478.00;;;;8376909;28;20315;-76
2023/03/14 05:53:56;;;;;;;3.88;2.10;;;;;9.80;94499.00;;;;8381394;28;20192;-76
2023/03/14 05:57:59;;;;;;;2.53;1.95;;;;;9.80;94494.00;;;;8367598;28;20643;-78
2023/03/14 06:02:06;;;;;;;2.33;2.08;;;;;9.80;94493.00;;;;8376093;28;21021;-77
2023/03/14 06:06:10;;;;;;;1.80;1.50;;;;;9.80;94498.00;;;;8383139;28;20256;-77
2023/03/14 06:10:13;;;;;;;2.15;1.85;;;;;9.90;94493.00;;;;8387517;28;20546;-76
2023/03/14 06:14:16;;;;;;;1.73;1.60;;;;;9.90;94489.00;;;;8379978;28;20192;-77
2023/03/14 06:18:24;;;;;;;1.98;1.83;;;;;9.90;94495.00;;;;8389140;28;20572;-77
2023/03/14 06:22:30;;;;;;;1.80;1.70;;;;;10.00;94501.00;;;;8384843;28;20196;-75
2023/03/14 06:26:34;;;;;;;1.60;1.50;;;;;10.00;94501.00;;;;8377462;28;20277;-76
2023/03/14 06:30:40;;;;;;;1.50;1.40;;;;;10.10;94496.00;;;;8379748;28;20207;-76
2023/03/14 06:34:45;;;;;;;1.75;1.48;;;;;10.10;94489.00;;;;8375124;28;20216;-76
2023/03/14 06:38:48;;;;;;;1.75;1.42;;;;;10.10;94487.00;;;;8386050;28;20224;-76
2023/03/14 06:42:56;;;;;;;5.63;1.38;;;;;10.10;94492.00;;;;8378290;28;20227;-78
2023/03/14 06:47:00;;;;;;;1.10;1.10;;;;;10.10;94500.00;;;;8381609;28;20814;-77
2023/03/14 06:51:07;;;;;;;1.08;1.08;;;;;10.10;94497.00;;;;8386946;28;20275;-76
2023/03/14 06:55:17;;;;;;;3.92;1.48;;;;;10.10;94492.00;;;;8386118;28;20436;-75
2023/03/14 06:59:24;;;;;;;1.20;1.10;;;;;10.10;94506.00;;;;8378869;28;20232;-76
2023/03/14 07:03:27;;;;;;;2.08;1.38;;;;;10.10;94494.00;;;;8382357;28;20238;-76
2023/03/14 07:07:32;;;;;;;1.83;1.40;;;;;10.10;94483.00;;;;8373967;28;20217;-78
2023/03/14 07:11:38;;;;;;;1.58;1.45;;;;;10.10;94482.00;;;;8379386;28;20205;-76
2023/03/14 07:15:55;;;;;;;1.10;1.10;;;;;10.10;94485.00;;;;8378522;28;20615;-77
2023/03/14 07:20:00;;;;;;;1.65;1.05;;;;;10.10;94491.00;;;;8353976;28;20305;-78
2023/03/14 07:24:04;;;;;;;4.10;1.20;;;;;10.20;94484.00;;;;8373610;28;20255;-78
2023/03/14 07:28:07;;;;;;;2.22;1.38;;;;;10.30;94488.00;;;;8376407;28;20200;-78
2023/03/14 07:32:14;;;;;;;2.17;1.10;;;;;10.40;94514.00;;;;8380469;28;20912;-75
2023/03/14 07:36:18;;;;;;;2.03;1.40;;;;;10.40;94503.00;;;;8371834;28;20273;-77
2023/03/14 07:40:24;;;;;;;1.20;1.00;;;;;10.40;94507.00;;;;8372995;28;20230;-80
2023/03/14 07:44:27;;;;;;;1.00;1.00;;;;;10.40;94522.00;;;;8373876;28;20298;-76
2023/03/14 07:48:31;;;;;;;1.08;1.08;;;;;10.40;94532.00;;;;8373669;28;20200;-75
2023/03/14 07:52:37;;;;;;;2.15;1.10;;;;;10.50;94532.00;;;;8370190;28;20951;-75
2023/03/14 07:56:42;;;;;;;1.08;1.08;;;;;10.50;94539.00;;;;8366242;28;20295;-76
2023/03/14 08:00:45;;;;;;;3.63;1.05;;;;;10.50;94546.00;;;;8369782;28;20320;-75
2023/03/14 08:04:52;;;;;;;1.17;1.00;;;;;10.60;94542.00;;;;8370352;28;20236;-76
2023/03/14 08:08:57;;;;;;;2.42;1.10;;;;;10.70;94538.00;;;;8373487;28;20197;-75
2023/03/14 08:13:02;;;;;;;1.17;1.10;;;;;10.80;94534.00;;;;8369920;28;20680;-74
2023/03/14 08:17:07;;;;;;;1.05;1.05;;;;;10.80;94520.00;;;;8373220;28;20199;-74
2023/03/14 08:21:11;;;;;;;1.65;1.00;;;;;10.80;94516.00;;;;8365637;28;20662;-75
2023/03/14 08:25:15;;;;;;;2.17;1.00;;;;;10.80;94517.00;;;;8358927;28;20200;-74
2023/03/14 08:29:22;;;;;;;1.00;1.00;;;;;10.90;94514.00;;;;8350983;28;20208;-75
2023/03/14 08:33:28;;;;;;;3.83;1.20;;;;;11.00;94509.00;;;;8370364;28;21466;-74
2023/03/14 08:37:32;;;;;;;1.98;1.15;;;;;11.10;94506.00;;;;8368469;28;20624;-75
2023/03/14 08:41:40;;;;;;;2.88;1.50;;;;;11.20;94496.00;;;;8374349;28;20560;-75
2023/03/14 08:45:46;;;;;;;2.33;1.70;;;;;11.40;94493.00;;;;8370356;28;20256;-75
2023/03/14 08:49:53;;;;;;;3.08;1.23;;;;;11.50;94503.00;;;;8365277;28;20633;-72
2023/03/14 08:53:56;;;;;;;2.22;1.42;;;;;11.60;94502.00;;;;8373942;28;20207;-75
2023/03/14 08:57:59;;;;;;;2.33;1.33;;;;;11.80;94506.00;;;;8361643;28;20224;-75
2023/03/14 09:02:05;;;;;;;1.85;1.10;;;;;11.90;94503.00;;;;8372977;28;20232;-74
2023/03/14 09:06:12;;;;;;;1.65;1.20;;;;;12.00;94499.00;;;;8352547;28;20206;-73
2023/03/14 09:10:19;;;;;;;1.25;1.15;;;;;12.00;94496.00;;;;8376662;28;20198;-72
2023/03/14 09:14:22;;;;;;;1.30;1.20;;;;;12.10;94488.00;;;;8371603;28;20198;-73
2023/03/14 09:18:31;;;;;;;2.85;0.98;;;;;12.10;94485.00;;;;8375379;28;20225;-72
2023/03/14 09:22:35;;;;;;;0.90;0.90;;;;;12.10;94495.00;;;;8365500;28;20203;-76
2023/03/14 09:26:38;;;;;;;0.95;0.95;;;;;12.20;94490.00;;;;8372650;28;20210;-75
2023/03/14 09:30:41;;;;;;;1.08;1.08;;;;;12.30;94490.00;;;;8371447;28;20217;-74
2023/03/14 09:34:48;;;;;;;2.83;1.40;;;;;12.50;94486.00;;;;8378085;28;20276;-74
2023/03/14 09:38:51;;;;;;;1.38;1.10;;;;;12.50;94496.00;;;;8381310;28;20232;-72
2023/03/14 09:42:55;;;;;;;1.00;0.90;;;;;12.50;94494.00;;;;8387829;28;20262;-76
2023/03/14 09:47:05;;;;;;;1.52;1.00;;;;;12.50;94501.00;;;;8380272;28;20250;-75
2023/03/14 09:51:21;;;;;;;2.05;0.93;;;;;12.70;94496.00;;;;8370815;28;20206;-77
2023/03/14 09:55:24;;;;;;;0.82;0.82;;;;;13.20;94509.00;;;;8379779;28;20277;-76
2023/03/14 09:59:32;;;;;;;2.63;1.10;;;;;13.90;94513.00;;;;8373295;28;20278;-72
2023/03/14 10:03:39;;;;;;;0.80;0.80;;;;;13.70;94507.00;;;;8378827;28;20281;-74
2023/03/14 10:07:45;;;;;;;0.90;0.90;;;;;13.60;94494.00;;;;8372646;28;20226;-74
2023/03/14 10:11:49;;;;;;;1.27;1.10;;;;;13.80;94498.00;;;;8374516;28;20258;-77
2023/03/14 10:15:54;;;;;;;1.65;0.80;;;;;13.80;94488.00;;;;8380040;28;20188;-73
2023/03/14 10:19:59;;;;;;;2.20;1.08;;;;;13.80;94477.00;;;;8384226;28;20688;-76
2023/03/14 10:24:18;;;;;;;0.90;0.90;;;;;14.40;94470.00;;;;8373384;28;20199;-76
2023/03/14 10:28:26;;;;;;;0.90;0.90;;;;;14.80;94453.00;;;;8373352;28;20250;-78
2023/03/14 10:32:35;;;;;;;0.90;0.90;;;;;14.80;94461.00;;;;8378906;28;20597;-75
2023/03/14 10:36:38;;;;;;;1.10;1.10;;;;;14.70;94447.00;;;;8377164;28;20200;-75
2023/03/14 10:40:52;;;;;;;0.95;0.95;;;;;14.60;94451.00;;;;8378565;28;20320;-76
2023/03/14 10:44:59;;;;;;;0.82;0.82;;;;;14.70;94449.00;;;;8382950;28;20211;-73
2023/03/14 10:49:06;;;;;;;1.00;1.00;;;;;15.10;94452.00;;;;8369324;28;20208;-75
2023/03/14 10:53:10;;;;;;;0.82;0.80;;;;;15.20;94452.00;;;;8351606;28;20200;-75
2023/03/14 10:57:20;;;;;;;4.40;1.02;;;;;15.40;94450.00;;;;8367752;28;20203;-74
2023/03/14 11:01:32;;;;;;;1.40;1.10;;;;;15.60;94452.00;;;;8382026;28;21186;-75
2023/03/14 11:05:43;;;;;;;1.02;0.90;;;;;15.40;94463.00;;;;8384811;28;20199;-75
2023/03/14 11:09:54;;;;;;;0.80;0.80;;;;;15.10;94462.00;;;;8371094;28;20197;-75
2023/03/14 11:14:10;;;;;;;1.00;1.00;;;;;14.90;94462.00;;;;8380090;28;20204;-74
2023/03/14 11:18:53;;;;;;;1.10;1.05;;;;;14.90;94471.00;;;;8366967;28;20206;-76
2023/03/14 11:23:03;;;;;;;0.88;0.88;;;;;14.80;94460.00;;;;8272096;28;20204;-72
2023/03/14 11:27:14;;;;;;;0.90;0.90;;;;;14.90;94462.00;;;;8365326;28;20231;-74
2023/03/14 11:31:23;;;;;;;2.00;0.95;;;;;15.20;94456.00;;;;8379729;28;20255;-78
2023/03/14 11:35:30;;;;;;;1.00;1.00;;;;;15.10;94445.00;;;;8380874;28;20207;-74
2023/03/14 11:39:46;;;;;;;0.80;0.80;;;;;15.10;94449.00;;;;8376815;28;20604;-73
2023/03/14 11:43:56;;;;;;;0.90;0.90;;;;;15.00;94446.00;;;;8377409;28;20193;-76
2023/03/14 11:48:18;;;;;;;1.00;1.00;;;;;15.10;94440.00;;;;8371102;28;20727;-78
2023/03/14 11:52:26;;;;;;;1.65;1.05;;;;;15.20;94427.00;;;;8370439;28;20192;-76
2023/03/14 11:56:35;;;;;;;0.90;0.90;;;;;15.20;94425.00;;;;8369928;28;20958;-72
2023/03/14 12:00:47;;;;;;;1.00;1.00;;;;;15.10;94424.00;;;;8373190;28;20283;-75
2023/03/14 12:05:19;;;;;;;0.90;0.90;;;;;14.90;94419.00;;;;8354799;28;20220;-79
2023/03/14 12:09:26;;;;;;;1.10;1.10;;;;;14.90;94418.00;;;;8371672;28;20199;-76
2023/03/14 12:13:32;;;;;;;1.20;1.10;;;;;14.80;94407.00;;;;8373832;28;20201;-75
2023/03/14 12:17:37;;;;;;;1.20;1.00;;;;;14.50;94417.00;;;;8370748;28;20196;-76
2023/03/14 12:21:52;;;;;;;0.82;0.82;;;;;14.10;94418.00;;;;8368113;28;20266;-79
2023/03/14 12:26:17;;;;;;;1.27;1.20;;;;;13.60;94417.00;;;;8351081;28;20200;-74
2023/03/14 12:30:30;;;;;;;0.90;0.90;;;;;13.10;94426.00;;;;8373085;28;20277;-70
2023/03/14 12:34:33;;;;;;;1.95;1.20;;;;;12.60;94417.00;;;;8367405;28;20193;-74
2023/03/14 12:39:01;;;;;;;2.88;1.10;;;;;12.50;94412.00;;;;8371831;28;20838;-78
2023/03/14 12:43:24;;;;;;;1.02;1.00;;;;;12.80;94403.00;;;;8356938;28;20192;-73
2023/03/14 12:47:48;;;;;;;0.90;0.90;;;;;13.00;94402.00;;;;8349867;28;20234;-75
2023/03/14 12:52:00;;;;;;;1.15;1.15;;;;;12.90;94406.00;;;;8370100;28;20195;-75
2023/03/14 12:56:12;;;;;;;1.75;0.90;;;;;12.90;94403.00;;;;8367301;28;20193;-73
2023/03/14 13:00:23;;;;;;;1.42;1.20;;;;;12.80;94390.00;;;;8360798;28;20244;-75
2023/03/14 13:04:34;;;;;;;1.35;1.25;;;;;12.90;94394.00;;;;8365677;28;20238;-76
2023/03/14 13:08:43;;;;;;;2.92;1.23;;;;;13.10;94383.00;;;;8369105;28;20259;-74
2023/03/14 13:12:55;;;;;;;1.30;1.30;;;;;13.10;94394.00;;;;8367065;28;20208;-77
2023/03/14 13:17:00;;;;;;;2.15;1.40;;;;;12.90;94405.00;;;;8380069;28;20620;-76
2023/03/14 13:21:23;;;;;;;2.45;1.27;;;;;12.50;94409.00;;;;8372349;28;20215;-72
2023/03/14 13:25:31;;;;;;;0.90;0.90;;;;;12.40;94397.00;;;;8378298;28;20204;-74
2023/03/14 13:29:36;;;;;;;1.85;1.05;;;;;12.50;94386.00;;;;8378502;28;20222;-75
2023/03/14 13:33:42;;;;;;;1.10;0.98;;;;;12.60;94386.00;;;;8380583;28;20204;-75
2023/03/14 13:37:45;;;;;;;1.15;1.05;;;;;12.60;94400.00;;;;8378823;28;20204;-78
2023/03/14 13:41:48;;;;;;;1.02;1.02;;;;;12.60;94401.00;;;;8380009;28;20257;-76
2023/03/14 13:46:04;;;;;;;1.00;1.00;;;;;12.50;94415.00;;;;8378811;28;20260;-72
2023/03/14 13:50:16;;;;;;;2.30;1.10;;;;;11.90;94451.00;;;;8371547;28;20203;-71
2023/03/14 13:54:21;;;;;;;0.90;0.90;;;;;11.30;94481.00;;;;8378930;28;20203;-74
2023/03/14 13:58:29;;;;;;;1.73;0.95;;;;;10.60;94472.00;;;;8378393;28;20261;-73
2023/03/14 14:02:37;;;;;;;0.98;0.70;;;;;10.40;94466.00;;;;8369439;28;20244;-76
2023/03/14 14:06:51;;;;;;;0.95;0.90;;;;;10.40;94491.00;;;;8378470;28;20215;-75
2023/03/14 14:11:00;;;;;;;0.80;0.80;;;;;10.50;94481.00;;;;8369835;28;20194;-73
2023/03/14 14:15:07;;;;;;;2.00;1.13;;;;;10.60;94494.00;;;;8367726;28;20204;-80
2023/03/14 14:19:12;;;;;;;0.85;0.85;;;;;10.50;94505.00;;;;8369509;28;20199;-72
2023/03/14 14:23:19;;;;;;;2.17;1.00;;;;;10.50;94508.00;;;;8374258;28;20850;-73
2023/03/14 14:27:34;;;;;;;2.80;1.20;;;;;10.50;94515.00;;;;8370869;28;20254;-74
2023/03/14 14:31:39;;;;;;;1.75;1.15;;;;;10.50;94503.00;;;;8380348;28;20208;-74
2023/03/14 14:35:51;;;;;;;12.32;5.50;;;;;10.40;94514.00;;;;8378113;28;20231;-73
2023/03/14 14:39:56;;;;;;;6.20;4.25;;;;;10.40;94512.00;;;;8378645;28;20224;-70
2023/03/14 14:44:00;;;;;;;3.28;2.97;;;;;10.30;94529.00;;;;8375812;28;20197;-73
2023/03/14 14:48:11;;;;;;;3.05;2.50;;;;;10.20;94524.00;;;;8372405;28;20277;-72
2023/03/14 14:52:22;;;;;;;1.88;1.77;;;;;10.10;94538.00;;;;8368320;28;20859;-70
2023/03/14 14:56:29;;;;;;;3.33;3.00;;;;;10.10;94536.00;;;;8375170;28;20192;-69
2023/03/14 15:00:32;;;;;;;1.73;1.63;;;;;10.10;94551.00;;;;8372834;28;21179;-73
2023/03/14 15:04:39;;;;;;;4.20;3.22;;;;;10.20;94548.00;;;;8373330;28;20251;-70
2023/03/14 15:08:44;;;;;;;5.63;4.30;;;;;10.20;94565.00;;;;8372794;28;20196;-73
2023/03/14 15:12:50;;;;;;;1.83;1.70;;;;;10.20;94575.00;;;;8374643;28;20278;-72
2023/03/14 15:16:54;;;;;;;1.50;1.48;;;;;10.20;94593.00;;;;8384143;28;20634;-72
2023/03/14 15:20:59;;;;;;;1.13;1.13;;;;;10.00;94613.00;;;;8385928;28;20228;-74
2023/03/14 15:25:10;;;;;;;1.40;1.30;;;;;9.90;94630.00;;;;8386226;28;20205;-74
2023/03/14 15:29:37;;;;;;;2.22;1.17;;;;;9.70;94631.00;;;;8380229;28;20297;-75
2023/03/14 15:33:43;;;;;;;1.67;1.58;;;;;9.50;94682.00;;;;8383684;28;20250;-73
2023/03/14 15:37:46;;;;;;;0.90;0.90;;;;;9.30;94678.00;;;;8383889;28;20243;-74
2023/03/14 15:41:50;;;;;;;1.38;1.20;;;;;9.00;94710.00;;;;8365440;28;20228;-70
2023/03/14 15:45:53;;;;;;;2.20;1.47;;;;;8.80;94717.00;;;;8381689;28;20993;-70
2023/03/14 15:49:59;;;;;;;1.23;1.23;;;;;8.70;94730.00;;;;8371098;28;20199;-75
2023/03/14 15:54:02;;;;;;;2.25;1.90;;;;;8.50;94744.00;;;;8364174;28;20223;-76
2023/03/14 15:58:21;;;;;;;2.83;1.60;;;;;8.40;94747.00;;;;8373126;28;20193;-72
2023/03/14 16:02:25;;;;;;;1.40;1.30;;;;;8.40;94771.00;;;;8369629;28;20224;-71
2023/03/14 16:06:30;;;;;;;1.53;1.43;;;;;8.30;94752.00;;;;8355692;28;20267;-73
2023/03/14 16:10:34;;;;;;;2.97;1.77;;;;;8.20;94793.00;;;;8355784;28;20262;-73
2023/03/14 16:14:42;;;;;;;1.58;1.50;;;;;8.10;94791.00;;;;8372757;28;20204;-75
2023/03/14 16:18:45;;;;;;;5.70;1.90;;;;;7.90;94809.00;;;;8379386;28;20211;-74
2023/03/14 16:22:49;;;;;;;4.83;1.70;;;;;7.80;94822.00;;;;8371873;28;20912;-74
2023/03/14 16:26:52;;;;;;;3.30;1.30;;;;;7.80;94819.00;;;;8376292;28;20254;-73
2023/03/14 16:31:02;;;;;;;1.30;1.23;;;;;7.80;94836.00;;;;8377591;28;20243;-74
2023/03/14 16:35:07;;;;;;;2.30;1.30;;;;;7.80;94842.00;;;;8378413;28;20200;-75
2023/03/14 16:39:10;;;;;;;3.03;1.10;;;;;7.90;94865.00;;;;8373424;28;20273;-73
2023/03/14 16:43:15;;;;;;;1.30;1.20;;;;;7.90;94876.00;;;;8370924;28;20228;-73
2023/03/14 16:47:19;;;;;;;1.83;1.40;;;;;8.00;94890.00;;;;8372465;28;20906;-72
2023/03/14 16:51:23;;;;;;;1.30;1.30;;;;;8.00;94901.00;;;;8384724;28;20198;-75
2023/03/14 16:55:30;;;;;;;2.77;1.33;;;;;8.00;94908.00;;;;8387923;28;20188;-74
2023/03/14 16:59:36;;;;;;;1.87;1.40;;;;;8.00;94925.00;;;;8381890;28;20196;-71
2023/03/14 17:03:45;;;;;;;1.20;1.10;;;;;7.90;94933.00;;;;8382691;28;20608;-71
2023/03/14 17:07:50;;;;;;;1.57;1.20;;;;;7.90;94933.00;;;;8389425;28;20560;-71
2023/03/14 17:11:54;;;;;;;3.17;1.30;;;;;7.80;94940.00;;;;8382220;28;20925;-72
2023/03/14 17:15:59;;;;;;;1.77;1.20;;;;;7.70;94967.00;;;;8385404;28;20211;-72
2023/03/14 17:20:08;;;;;;;3.30;1.50;;;;;7.60;94979.00;;;;8388311;28;20852;-71
2023/03/14 17:24:11;;;;;;;2.87;1.20;;;;;7.50;94986.00;;;;8388669;28;20278;-72
2023/03/14 17:28:14;;;;;;;1.20;1.10;;;;;7.50;94995.00;;;;8387655;28;20220;-71
2023/03/14 17:32:18;;;;;;;2.13;1.30;;;;;7.50;95024.00;;;;8388124;28;20549;-72
2023/03/14 17:36:27;;;;;;;3.03;1.20;;;;;7.50;95022.00;;;;8386584;28;20242;-71
2023/03/14 17:40:30;;;;;;;1.90;1.40;;;;;7.50;95029.00;;;;8387366;28;20287;-74
2023/03/14 17:44:34;;;;;;;4.37;1.17;;;;;7.50;95045.00;;;;8387044;28;20664;-73
2023/03/14 17:48:42;;;;;;;1.47;1.17;;;;;7.50;95047.00;;;;8385454;28;20258;-76
2023/03/14 17:52:47;;;;;;;6.57;1.77;;;;;7.50;95062.00;;;;8385377;28;20212;-72
2023/03/14 17:56:51;;;;;;;1.27;1.17;;;;;7.50;95067.00;;;;8384798;28;20227;-74
2023/03/14 18:00:55;;;;;;;3.13;1.30;;;;;7.50;95091.00;;;;8381965;28;20754;-73
2023/03/14 18:04:58;;;;;;;1.63;1.17;;;;;7.50;95105.00;;;;8381104;28;20273;-72
2023/03/14 18:09:06;;;;;;;9.50;3.50;;;;;7.40;95121.00;;;;8383418;28;20204;-72
2023/03/14 18:13:12;;;;;;;6.77;3.17;;;;;7.40;95131.00;;;;8382627;28;20189;-72
2023/03/14 18:17:16;;;;;;;1.93;1.23;;;;;7.40;95139.00;;;;8384060;28;20235;-73
2023/03/14 18:21:20;;;;;;;1.30;1.20;;;;;7.40;95135.00;;;;8380566;28;20216;-72
2023/03/14 18:25:25;;;;;;;4.13;1.60;;;;;7.30;95149.00;;;;8384764;28;20222;-72
2023/03/14 18:29:28;;;;;;;5.60;1.40;;;;;7.30;95157.00;;;;8383212;28;20208;-72
2023/03/14 18:33:37;;;;;;;2.43;1.27;;;;;7.30;95163.00;;;;8382888;28;20196;-72
2023/03/14 18:37:44;;;;;;;5.20;1.27;;;;;7.20;95180.00;;;;8379567;28;20247;-72
2023/03/14 18:41:49;;;;;;;1.20;1.10;;;;;7.10;95187.00;;;;8380451;28;20277;-72
2023/03/14 18:45:52;;;;;;;1.63;1.40;;;;;7.10;95188.00;;;;8376030;28;20717;-74
2023/03/14 18:49:58;;;;;;;3.20;1.30;;;;;7.00;95195.00;;;;8363882;28;20188;-73
2023/03/14 18:54:01;;;;;;;1.30;1.20;;;;;7.00;95205.00;;;;8386443;28;20203;-72
2023/03/14 18:58:13;;;;;;;1.40;1.30;;;;;7.00;95204.00;;;;8377586;28;20680;-72
2023/03/14 19:02:16;;;;;;;3.60;1.50;;;;;7.00;95213.00;;;;8380415;28;20232;-73
2023/03/14 19:06:20;;;;;;;2.97;1.30;;;;;6.90;95221.00;;;;8380682;28;20203;-73
2023/03/14 19:10:23;;;;;;;1.40;1.30;;;;;6.90;95221.00;;;;8384998;28;20195;-75
2023/03/14 19:14:29;;;;;;;1.40;1.30;;;;;6.90;95232.00;;;;8382672;28;20196;-75
2023/03/14 19:18:33;;;;;;;3.57;2.10;;;;;6.90;95245.00;;;;8381735;28;20188;-73
2023/03/14 19:22:36;;;;;;;7.00;1.77;;;;;6.90;95254.00;;;;8383244;28;20278;-73
2023/03/14 19:26:39;;;;;;;1.43;1.30;;;;;6.90;95266.00;;;;8371610;28;20213;-74
2023/03/14 19:30:46;;;;;;;1.40;1.30;;;;;6.90;95258.00;;;;8371633;28;20203;-74
2023/03/14 19:34:49;;;;;;;2.10;1.30;;;;;6.90;95262.00;;;;8382827;28;20200;-73
2023/03/14 19:38:54;;;;;;;1.77;1.67;;;;;6.80;95275.00;;;;8379915;28;20208;-73
2023/03/14 19:42:58;;;;;;;3.37;2.13;;;;;6.80;95280.00;;;;8382967;28;20282;-73
2023/03/14 19:47:05;;;;;;;2.13;1.40;;;;;6.70;95292.00;;;;8372985;28;20204;-73
2023/03/14 19:51:10;;;;;;;4.10;1.57;;;;;6.70;95292.00;;;;8384593;28;20228;-73
2023/03/14 19:55:14;;;;;;;6.97;1.73;;;;;6.80;95297.00;;;;8384053;28;20205;-74
2023/03/14 19:59:20;;;;;;;4.07;1.43;;;;;6.80;95311.00;;;;8366666;28;20204;-74
2023/03/14 20:03:25;;;;;;;4.53;1.60;;;;;6.90;95315.00;;;;8379250;28;20943;-75
2023/03/14 20:07:37;;;;;;;4.37;1.60;;;;;6.90;95322.00;;;;8371044;28;20551;-73
2023/03/14 20:11:43;;;;;;;1.53;1.43;;;;;6.90;95323.00;;;;8358833;28;20232;-72
2023/03/14 20:15:48;;;;;;;5.07;1.60;;;;;6.90;95322.00;;;;8365938;28;20197;-73
2023/03/14 20:19:59;;;;;;;1.83;1.40;;;;;6.90;95321.00;;;;8377175;28;20283;-75
2023/03/14 20:24:08;;;;;;;3.10;1.50;;;;;6.80;95327.00;;;;8378291;28;20258;-73
2023/03/14 20:28:12;;;;;;;1.93;1.57;;;;;6.60;95345.00;;;;8374380;28;20196;-74
2023/03/14 20:32:17;;;;;;;2.80;1.43;;;;;6.50;95334.00;;;;8375366;28;20650;-73
2023/03/14 20:36:24;;;;;;;4.10;1.43;;;;;6.40;95345.00;;;;8376772;28;20592;-74
2023/03/14 20:40:32;;;;;;;2.40;1.67;;;;;6.20;95350.00;;;;8372037;28;20867;-76